createdAt,value
2018-05-09T00:00:09.081Z,10.2
2018-05-09T00:00:59.052Z,10.2
2018-05-09T00:01:49.131Z,10.2
2018-05-09T00:02:39.468Z,10.1
2018-05-09T00:03:29.601Z,10.2
2018-05-09T00:04:19.328Z,10.1
2018-05-09T00:05:09.650Z,10.1
2018-05-09T00:05:59.730Z,10.1
2018-05-09T00:06:49.780Z,10.1
2018-05-09T00:07:39.568Z,10.1
2018-05-09T00:08:29.914Z,10.1
2018-05-09T00:09:19.703Z,10.1
2018-05-09T00:10:10.036Z,10.1
2018-05-09T00:11:00.108Z,10.1
2018-05-09T00:11:50.176Z,10.1
2018-05-09T00:12:39.939Z,10.1
2018-05-09T00:13:30.300Z,10.1
2018-05-09T00:14:20.358Z,10
2018-05-09T00:15:10.180Z,10
2018-05-09T00:16:00.483Z,10.1
2018-05-09T00:16:50.542Z,10
2018-05-09T00:17:40.616Z,10
2018-05-09T00:18:30.684Z,10
2018-05-09T00:19:20.449Z,10
2018-05-09T00:20:10.532Z,10
2018-05-09T00:21:00.867Z,10
2018-05-09T00:21:50.664Z,9.9
2018-05-09T00:22:41.021Z,9.9
2018-05-09T00:23:31.067Z,9.9
2018-05-09T00:24:21.150Z,9.9
2018-05-09T00:25:11.184Z,9.9
2018-05-09T00:26:00.715Z,9.9
2018-05-09T00:26:51.048Z,9.9
2018-05-09T00:27:41.095Z,9.9
2018-05-09T00:28:31.174Z,9.9
2018-05-09T00:29:20.953Z,9.9
2018-05-09T00:30:11.310Z,9.9
2018-05-09T00:31:01.367Z,9.9
2018-05-09T00:31:51.716Z,9.9
2018-05-09T00:32:41.520Z,9.9
2018-05-09T00:33:31.832Z,9.9
2018-05-09T00:34:21.882Z,9.9
2018-05-09T00:35:11.920Z,9.9
2018-05-09T00:36:02.032Z,9.9
2018-05-09T00:36:52.097Z,9.9
2018-05-09T00:37:41.887Z,9.9
2018-05-09T00:38:31.668Z,9.8
2018-05-09T00:39:22.293Z,9.8
2018-05-09T00:40:12.343Z,9.8
2018-05-09T00:41:02.146Z,9.8
2018-05-09T00:41:52.491Z,9.8
2018-05-09T00:42:42.537Z,9.8
2018-05-09T00:43:32.612Z,9.8
2018-05-09T00:44:22.671Z,9.8
2018-05-09T00:45:12.456Z,9.8
2018-05-09T00:46:02.869Z,9.8
2018-05-09T00:46:52.591Z,9.7
2018-05-09T00:47:42.935Z,9.7
2018-05-09T00:48:32.987Z,9.6
2018-05-09T00:49:23.059Z,9.6
2018-05-09T00:50:13.526Z,9.6
2018-05-09T00:51:02.901Z,9.6
2018-05-09T00:51:53.256Z,9.6
2018-05-09T00:52:43.324Z,9.6
2018-05-09T00:53:33.356Z,9.6
2018-05-09T00:54:23.436Z,9.6
2018-05-09T00:55:13.501Z,9.5
2018-05-09T00:56:03.579Z,9.5
2018-05-09T00:56:53.641Z,9.5
2018-05-09T00:57:43.410Z,9.4
2018-05-09T00:58:33.200Z,9.4
2018-05-09T00:59:23.809Z,9.4
2018-05-09T01:00:13.890Z,9.4
2018-05-09T01:01:03.933Z,9.4
2018-05-09T01:01:54.033Z,9.4
2018-05-09T01:02:43.803Z,9.3
2018-05-09T01:03:33.861Z,9.3
2018-05-09T01:04:24.201Z,9.3
2018-05-09T01:05:13.977Z,9.3
2018-05-09T01:06:04.343Z,9.3
2018-05-09T01:06:54.410Z,9.3
2018-05-09T01:07:44.479Z,9.2
2018-05-09T01:08:34.521Z,9.2
2018-05-09T01:09:24.589Z,9.2
2018-05-09T01:10:14.634Z,9.1
2018-05-09T01:11:04.722Z,9.1
2018-05-09T01:11:54.506Z,9.1
2018-05-09T01:12:44.841Z,9.1
2018-05-09T01:13:34.641Z,9.1
2018-05-09T01:14:24.975Z,9
2018-05-09T01:15:14.748Z,9.1
2018-05-09T01:16:05.087Z,9
2018-05-09T01:16:55.147Z,9
2018-05-09T01:17:45.233Z,9
2018-05-09T01:18:35.021Z,8.9
2018-05-09T01:19:25.373Z,8.9
2018-05-09T01:20:15.133Z,8.9
2018-05-09T01:21:05.495Z,8.9
2018-05-09T01:21:55.270Z,8.9
2018-05-09T01:22:45.325Z,8.8
2018-05-09T01:23:35.686Z,8.8
2018-05-09T01:24:25.470Z,8.8
2018-05-09T01:25:15.800Z,8.8
2018-05-09T01:26:05.590Z,8.8
2018-05-09T01:26:55.947Z,8.8
2018-05-09T01:27:46.002Z,8.7
2018-05-09T01:28:36.059Z,8.7
2018-05-09T01:29:25.577Z,8.7
2018-05-09T01:30:16.194Z,8.6
2018-05-09T01:31:05.972Z,8.7
2018-05-09T01:31:56.041Z,8.6
2018-05-09T01:32:46.387Z,8.6
2018-05-09T01:33:36.456Z,8.6
2018-05-09T01:34:26.563Z,8.6
2018-05-09T01:35:16.582Z,8.6
2018-05-09T01:36:06.629Z,8.6
2018-05-09T01:36:56.712Z,8.6
2018-05-09T01:37:46.488Z,8.6
2018-05-09T01:38:36.825Z,8.5
2018-05-09T01:39:26.629Z,8.5
2018-05-09T01:40:16.966Z,8.5
2018-05-09T01:41:06.749Z,8.5
2018-05-09T01:41:57.075Z,8.4
2018-05-09T01:42:47.146Z,8.4
2018-05-09T01:43:37.224Z,8.4
2018-05-09T01:44:26.991Z,8.4
2018-05-09T01:45:17.344Z,8.4
2018-05-09T01:46:07.136Z,8.4
2018-05-09T01:46:57.467Z,8.3
2018-05-09T01:47:47.546Z,8.3
2018-05-09T01:48:37.353Z,8.3
2018-05-09T01:49:27.657Z,8.3
2018-05-09T01:50:17.442Z,8.3
2018-05-09T01:51:07.791Z,8.3
2018-05-09T01:51:57.883Z,8.2
2018-05-09T01:52:47.626Z,8.2
2018-05-09T01:53:37.976Z,8.2
2018-05-09T01:54:28.031Z,8.1
2018-05-09T01:55:17.611Z,8.1
2018-05-09T01:56:08.196Z,8.1
2018-05-09T01:56:57.961Z,8.1
2018-05-09T01:57:48.122Z,8.1
2018-05-09T01:58:38.351Z,8.1
2018-05-09T01:59:28.163Z,8.1
2018-05-09T02:00:18.488Z,8.1
2018-05-09T02:01:08.550Z,8.1
2018-05-09T02:01:58.631Z,8.1
2018-05-09T02:02:48.681Z,8.1
2018-05-09T02:03:38.757Z,8.1
2018-05-09T02:04:28.522Z,8.1
2018-05-09T02:05:18.578Z,8.1
2018-05-09T02:06:09.174Z,8.1
2018-05-09T02:06:59.003Z,8
2018-05-09T02:07:49.063Z,8
2018-05-09T02:08:39.138Z,8.1
2018-05-09T02:09:28.913Z,8
2018-05-09T02:10:19.260Z,8.1
2018-05-09T02:11:09.332Z,8
2018-05-09T02:11:59.096Z,8
2018-05-09T02:12:49.462Z,8
2018-05-09T02:13:39.247Z,8
2018-05-09T02:14:29.601Z,8
2018-05-09T02:15:19.350Z,7.9
2018-05-09T02:16:09.444Z,7.9
2018-05-09T02:16:59.765Z,7.9
2018-05-09T02:17:49.834Z,7.9
2018-05-09T02:18:39.900Z,7.9
2018-05-09T02:19:29.959Z,7.9
2018-05-09T02:20:20.034Z,7.9
2018-05-09T02:21:10.088Z,7.9
2018-05-09T02:22:00.157Z,7.9
2018-05-09T02:22:50.203Z,7.8
2018-05-09T02:23:39.995Z,7.8
2018-05-09T02:24:30.338Z,7.8
2018-05-09T02:25:20.434Z,7.8
2018-05-09T02:26:10.467Z,7.8
2018-05-09T02:27:00.276Z,7.8
2018-05-09T02:27:50.615Z,7.8
2018-05-09T02:28:40.660Z,7.8
2018-05-09T02:29:30.453Z,7.8
2018-05-09T02:30:20.793Z,7.7
2018-05-09T02:31:11.247Z,7.7
2018-05-09T02:32:00.648Z,7.7
2018-05-09T02:32:51.001Z,7.7
2018-05-09T02:33:41.055Z,7.6
2018-05-09T04:37:17.339Z,9.5
2018-05-09T04:38:07.405Z,9.6
2018-05-09T04:38:57.165Z,9.6
2018-05-09T04:39:47.515Z,9.7
2018-05-09T04:40:37.575Z,10.3
2018-05-09T04:41:27.327Z,10.9
2018-05-09T04:42:17.397Z,11
2018-05-09T04:43:07.748Z,11.5
2018-05-09T04:43:57.805Z,11.6
2018-05-09T04:44:47.876Z,11.8
2018-05-09T04:45:37.656Z,11.7
2018-05-09T04:46:28.013Z,11.8
2018-05-09T04:47:18.076Z,11.9
2018-05-09T04:48:08.121Z,11.8
2018-05-09T04:48:58.175Z,11.7
2018-05-09T04:49:48.235Z,11.5
2018-05-09T04:50:38.280Z,11.4
2018-05-09T04:51:28.377Z,11.6
2018-05-09T04:52:18.407Z,11.7
2018-05-09T04:53:08.203Z,11.8
2018-05-09T04:53:58.535Z,11.6
2018-05-09T04:54:48.600Z,11.6
2018-05-09T04:55:39.324Z,12.3
2018-05-09T04:56:28.428Z,12.4
2018-05-09T04:57:18.507Z,12.2
2018-05-09T04:58:08.580Z,12.3
2018-05-09T04:58:58.614Z,12.1
2018-05-09T04:59:48.990Z,12.1
2018-05-09T05:00:39.047Z,11.9
2018-05-09T05:01:29.107Z,11.7
2018-05-09T05:02:19.170Z,11.6
2018-05-09T05:03:09.235Z,11.5
2018-05-09T05:03:59.305Z,11.6
2018-05-09T05:04:49.344Z,12
2018-05-09T05:05:39.419Z,12.1
2018-05-09T05:06:29.477Z,12.1
2018-05-09T05:07:19.540Z,12.3
2018-05-09T05:08:09.606Z,12.5
2018-05-09T05:08:59.657Z,12.4
2018-05-09T05:09:49.705Z,12.8
2018-05-09T05:10:39.756Z,12.6
2018-05-09T05:11:29.830Z,12.5
2018-05-09T05:12:19.596Z,12.5
2018-05-09T05:13:09.965Z,12.5
2018-05-09T05:14:00.029Z,12.7
2018-05-09T05:14:50.076Z,13
2018-05-09T05:15:40.455Z,13.1
2018-05-09T05:16:30.208Z,13.1
2018-05-09T05:17:19.981Z,12.9
2018-05-09T05:18:09.764Z,12.9
2018-05-09T05:18:59.831Z,12.9
2018-05-09T05:19:50.502Z,13.3
2018-05-09T05:20:40.236Z,13.4
2018-05-09T05:21:30.573Z,14.1
2018-05-09T05:22:20.357Z,14.3
2018-05-09T05:23:10.433Z,14.6
2018-05-09T05:24:00.505Z,14.4
2018-05-09T05:24:50.831Z,14.7
2018-05-09T05:25:40.929Z,14.6
2018-05-09T05:26:30.671Z,14.4
2018-05-09T05:27:21.020Z,14.3
2018-05-09T05:28:10.800Z,14
2018-05-09T05:29:00.868Z,14
2018-05-09T05:29:51.272Z,14.3
2018-05-09T05:30:41.251Z,14.3
2018-05-09T05:31:31.332Z,14.4
2018-05-09T05:32:21.088Z,14.9
2018-05-09T05:33:11.454Z,15
2018-05-09T05:34:01.213Z,18.9
2018-05-09T05:34:51.282Z,21.9
2018-05-09T05:35:41.609Z,23.6
2018-05-09T05:36:31.479Z,24.8
2018-05-09T05:37:21.747Z,25.6
2018-05-09T05:38:11.816Z,26.2
2018-05-09T05:39:01.871Z,26.6
2018-05-09T05:39:51.938Z,27.1
2018-05-09T05:40:41.991Z,27.4
2018-05-09T05:42:22.118Z,28.2
2018-05-09T05:43:12.193Z,28.6
2018-05-09T05:44:02.255Z,28.9
2018-05-09T05:44:52.490Z,29.4
2018-05-09T05:45:42.107Z,29.8
2018-05-09T05:46:32.157Z,30.3
2018-05-09T05:47:22.492Z,30.7
2018-05-09T05:48:12.564Z,31.1
2018-05-09T05:49:02.048Z,31.5
2018-05-09T05:49:52.682Z,31.9
2018-05-09T05:50:42.757Z,32.3
2018-05-09T05:51:32.816Z,32.7
2018-05-09T05:52:22.881Z,33.1
2018-05-09T05:53:12.366Z,33.4
2018-05-09T05:54:02.732Z,33.9
2018-05-09T05:54:53.057Z,34.3
2018-05-09T05:55:43.129Z,34.7
2018-05-09T05:56:33.175Z,35.1
2018-05-09T05:57:23.237Z,35.4
2018-05-09T05:58:13.298Z,35.8
2018-05-09T05:59:03.373Z,36.1
2018-05-09T05:59:53.449Z,36.5
2018-05-09T06:00:43.508Z,36.8
2018-05-09T06:01:33.573Z,37.1
2018-05-09T06:02:23.620Z,37.5
2018-05-09T06:03:13.691Z,38.4
2018-05-09T06:04:03.476Z,39.6
2018-05-09T06:04:53.818Z,39.8
2018-05-09T06:05:43.637Z,39.3
2018-05-09T06:06:33.977Z,38.6
2018-05-09T06:07:24.001Z,37
2018-05-09T06:08:14.068Z,35.1
2018-05-09T06:09:04.127Z,33.4
2018-05-09T06:09:53.917Z,32.6
2018-05-09T06:10:43.983Z,32.4
2018-05-09T06:11:34.047Z,32.9
2018-05-09T06:12:24.398Z,33.7
2018-05-09T06:13:14.448Z,34.5
2018-05-09T06:14:04.518Z,35.1
2018-05-09T06:14:54.567Z,35.4
2018-05-09T06:15:44.629Z,35.3
2018-05-09T06:16:34.411Z,35.3
2018-05-09T06:17:24.493Z,35.3
2018-05-09T06:18:14.823Z,35.3
2018-05-09T06:19:04.626Z,35.4
2018-05-09T06:19:54.945Z,35.4
2018-05-09T06:20:45.019Z,35.6
2018-05-09T06:21:35.088Z,35.8
2018-05-09T06:22:24.874Z,36.1
2018-05-09T06:23:14.941Z,36.4
2018-05-09T06:24:05.958Z,36.7
2018-05-09T06:24:55.050Z,37
2018-05-09T06:25:45.405Z,37.2
2018-05-09T06:26:35.208Z,37.5
2018-05-09T06:27:25.538Z,37.8
2018-05-09T06:28:15.313Z,37.9
2018-05-09T06:29:05.388Z,38.2
2018-05-09T06:29:55.429Z,38.5
2018-05-09T06:30:45.783Z,38.8
2018-05-09T06:31:35.583Z,39
2018-05-09T06:32:25.910Z,39.3
2018-05-09T06:33:15.695Z,39.4
2018-05-09T06:34:05.856Z,39.6
2018-05-09T06:34:56.104Z,39.7
2018-05-09T06:35:46.173Z,39.8
2018-05-09T06:36:35.947Z,39.9
2018-05-09T06:37:26.296Z,40.1
2018-05-09T06:38:16.355Z,40.2
2018-05-09T06:39:05.859Z,40.4
2018-05-09T06:39:56.457Z,40.6
2018-05-09T06:40:46.609Z,40.8
2018-05-09T06:41:36.896Z,41
2018-05-09T06:42:26.664Z,41.2
2018-05-09T06:43:16.465Z,41.4
2018-05-09T06:44:06.237Z,41.4
2018-05-09T06:44:56.867Z,41.5
2018-05-09T06:45:46.636Z,41.6
2018-05-09T06:46:37.003Z,41.7
2018-05-09T06:47:26.764Z,41.8
2018-05-09T06:48:17.127Z,41.8
2018-05-09T06:49:06.907Z,41.8
2018-05-09T06:49:57.462Z,41.8
2018-05-09T06:50:47.332Z,42
2018-05-09T06:51:36.803Z,42.1
2018-05-09T06:52:27.446Z,42.1
2018-05-09T06:53:17.228Z,41.7
2018-05-09T06:54:07.298Z,41.6
2018-05-09T06:54:57.339Z,41.9
2018-05-09T06:55:47.418Z,42.1
2018-05-09T06:56:37.757Z,42.4
2018-05-09T06:57:27.249Z,42.8
2018-05-09T06:58:17.329Z,43.1
2018-05-09T06:59:08.278Z,43.4
2018-05-09T06:59:57.973Z,43.8
2018-05-09T07:00:48.068Z,44
2018-05-09T07:01:38.205Z,44.1
2018-05-09T07:02:28.198Z,44.1
2018-05-09T07:03:18.273Z,44.2
2018-05-09T07:04:08.363Z,44.2
2018-05-09T07:04:58.123Z,44.1
2018-05-09T07:05:48.479Z,44.1
2018-05-09T07:06:39.578Z,44.2
2018-05-09T07:07:28.318Z,44.3
2018-05-09T07:08:18.682Z,44.4
2018-05-09T07:09:08.429Z,44.3
2018-05-09T07:09:58.492Z,44.3
2018-05-09T07:10:48.853Z,44.1
2018-05-09T07:11:38.370Z,44
2018-05-09T07:12:28.890Z,44.1
2018-05-09T07:13:18.748Z,44
2018-05-09T07:14:09.200Z,44
2018-05-09T07:14:59.168Z,43.9
2018-05-09T07:15:48.953Z,43.8
2018-05-09T07:16:39.304Z,44
2018-05-09T07:17:29.078Z,44.1
2018-05-09T07:18:19.417Z,44.3
2018-05-09T07:19:09.499Z,44.4
2018-05-09T07:19:59.270Z,44.5
2018-05-09T07:20:49.623Z,44.6
2018-05-09T07:21:39.387Z,44.6
2018-05-09T07:22:29.731Z,44.8
2018-05-09T07:23:19.792Z,45
2018-05-09T07:24:09.591Z,45.2
2018-05-09T07:24:59.934Z,45.3
2018-05-09T07:25:49.425Z,45.4
2018-05-09T07:26:40.064Z,45.4
2018-05-09T07:27:30.114Z,45.6
2018-05-09T07:28:19.925Z,45.7
2018-05-09T07:29:10.246Z,45.8
2018-05-09T07:30:00.318Z,46
2018-05-09T07:30:50.374Z,46.1
2018-05-09T07:31:40.431Z,46.3
2018-05-09T07:32:30.503Z,46.4
2018-05-09T07:33:20.566Z,46.4
2018-05-09T07:34:10.647Z,46.6
2018-05-09T07:35:00.700Z,46.7
2018-05-09T07:35:50.597Z,46.9
2018-05-09T07:36:40.545Z,47.1
2018-05-09T07:37:30.899Z,47.3
2018-05-09T07:38:20.389Z,47.5
2018-05-09T07:39:11.005Z,47.9
2018-05-09T07:40:01.075Z,48.2
2018-05-09T07:40:51.132Z,48.3
2018-05-09T07:41:41.201Z,48.5
2018-05-09T07:42:30.996Z,48.8
2018-05-09T07:43:21.342Z,49.1
2018-05-09T07:44:10.829Z,49.4
2018-05-09T07:45:01.467Z,49.6
2018-05-09T07:45:51.529Z,49.7
2018-05-09T07:46:41.584Z,49.7
2018-05-09T07:47:31.887Z,49.8
2018-05-09T07:48:21.449Z,49.9
2018-05-09T07:49:11.229Z,49.9
2018-05-09T07:50:01.852Z,50
2018-05-09T07:50:51.629Z,49.9
2018-05-09T07:51:41.690Z,49.9
2018-05-09T07:52:32.053Z,49.9
2018-05-09T07:53:22.113Z,49.9
2018-05-09T07:54:11.884Z,49.9
2018-05-09T07:55:02.251Z,49.9
2018-05-09T07:55:52.280Z,49.9
2018-05-09T07:56:42.442Z,50.1
2018-05-09T07:57:32.239Z,50.2
2018-05-09T07:58:22.488Z,50.3
2018-05-09T07:59:12.557Z,50.2
2018-05-09T08:00:02.635Z,50.2
2018-05-09T08:00:52.390Z,50.1
2018-05-09T08:01:42.732Z,49.9
2018-05-09T08:02:32.525Z,49.8
2018-05-09T08:03:22.901Z,49.9
2018-05-09T08:04:12.931Z,50
2018-05-09T08:05:03.002Z,50.1
2018-05-09T08:05:52.811Z,50.4
2018-05-09T08:06:42.851Z,50.6
2018-05-09T08:07:32.931Z,50.9
2018-05-09T08:08:23.267Z,51.2
2018-05-09T08:09:13.311Z,51.3
2018-05-09T08:10:03.406Z,51.4
2018-05-09T08:10:53.460Z,51.6
2018-05-09T08:11:43.520Z,51.8
2018-05-09T08:13:23.357Z,52.1
2018-05-09T08:14:13.140Z,52.3
2018-05-09T08:15:53.550Z,52.4
2018-05-09T08:16:43.223Z,52.5
2018-05-09T08:17:33.707Z,52.4
2018-05-09T08:19:14.107Z,52.5
2018-05-09T08:20:04.163Z,52.6
2018-05-09T08:20:54.217Z,52.7
2018-05-09T08:21:44.281Z,52.7
2018-05-09T08:22:34.345Z,52.7
2018-05-09T08:23:24.424Z,52.8
2018-05-09T08:24:14.475Z,52.9
2018-05-09T08:25:04.760Z,53
2018-05-09T08:25:54.616Z,53.3
2018-05-09T08:26:44.385Z,53.5
2018-05-09T08:27:34.735Z,53.7
2018-05-09T08:28:24.824Z,53.9
2018-05-09T08:29:14.874Z,53.9
2018-05-09T08:30:05.019Z,53.9
2018-05-09T08:30:54.736Z,54
2018-05-09T08:31:44.509Z,54.1
2018-05-09T08:32:35.148Z,54.3
2018-05-09T08:33:25.200Z,54.3
2018-05-09T08:34:14.972Z,54.4
2018-05-09T08:35:05.333Z,54.4
2018-05-09T08:35:55.379Z,54.5
2018-05-09T08:36:45.773Z,54.7
2018-05-09T08:37:35.542Z,55
2018-05-09T08:38:25.570Z,55.1
2018-05-09T08:39:15.645Z,55.2
2018-05-09T08:40:05.735Z,55.3
2018-05-09T08:40:55.772Z,55.5
2018-05-09T08:41:45.541Z,55.8
2018-05-09T08:42:35.646Z,56
2018-05-09T08:43:26.472Z,56.1
2018-05-09T08:44:15.728Z,56.3
2018-05-09T08:45:06.091Z,56.4
2018-05-09T08:45:56.154Z,56.5
2018-05-09T08:46:45.913Z,56.6
2018-05-09T08:47:36.280Z,56.7
2018-05-09T08:48:26.064Z,56.8
2018-05-09T08:49:16.658Z,56.9
2018-05-09T08:50:06.467Z,57.2
2018-05-09T08:50:56.538Z,57.3
2018-05-09T08:51:46.322Z,57.4
2018-05-09T08:52:36.665Z,57.4
2018-05-09T08:53:26.716Z,57.4
2018-05-09T08:54:16.796Z,57.3
2018-05-09T08:55:06.865Z,57.3
2018-05-09T08:55:56.641Z,57.3
2018-05-09T08:56:46.980Z,57.4
2018-05-09T08:57:36.761Z,57.4
2018-05-09T08:58:27.121Z,57.4
2018-05-09T08:59:17.193Z,57.6
2018-05-09T09:00:06.971Z,58
2018-05-09T09:00:57.029Z,58.4
2018-05-09T09:02:37.153Z,58.7
2018-05-09T09:03:27.492Z,58.8
2018-05-09T09:04:17.767Z,58.8
2018-05-09T09:05:07.346Z,58.7
2018-05-09T09:05:57.706Z,58.4
2018-05-09T09:06:47.749Z,58.2
2018-05-09T09:07:37.831Z,58.1
2018-05-09T09:08:27.873Z,58.3
2018-05-09T09:09:17.935Z,58.4
2018-05-09T09:10:08.021Z,58.6
2018-05-09T09:10:58.053Z,58.8
2018-05-09T09:11:48.142Z,58.9
2018-05-09T09:12:38.205Z,59.1
2018-05-09T09:13:27.993Z,59.3
2018-05-09T09:14:18.107Z,59.4
2018-05-09T09:15:08.408Z,59.6
2018-05-09T09:15:58.207Z,59.8
2018-05-09T09:16:48.518Z,59.9
2018-05-09T09:17:38.297Z,59.9
2018-05-09T09:18:28.807Z,59.9
2018-05-09T09:19:18.730Z,60.1
2018-05-09T09:20:08.794Z,60.1
2018-05-09T09:20:58.747Z,60.1
2018-05-09T09:21:48.912Z,59.9
2018-05-09T09:22:38.984Z,59.9
2018-05-09T09:23:28.486Z,60.1
2018-05-09T09:24:19.129Z,60.1
2018-05-09T09:25:08.617Z,60.1
2018-05-09T09:25:59.230Z,59.9
2018-05-09T09:26:49.297Z,59.9
2018-05-09T09:27:38.817Z,59.9
2018-05-09T09:28:29.427Z,60.1
2018-05-09T09:29:19.614Z,60
2018-05-09T09:30:09.629Z,59.9
2018-05-09T09:30:59.347Z,59.9
2018-05-09T09:31:49.422Z,60
2018-05-09T09:32:39.746Z,59.9
2018-05-09T09:33:29.817Z,59.9
2018-05-09T09:34:19.919Z,60
2018-05-09T09:35:09.673Z,60.1
2018-05-09T09:35:59.763Z,60.3
2018-05-09T09:36:50.069Z,60.7
2018-05-09T09:37:40.161Z,61
2018-05-09T09:38:29.922Z,61.2
2018-05-09T09:39:20.365Z,61.3
2018-05-09T09:40:10.353Z,61.3
2018-05-09T09:41:00.485Z,61.4
2018-05-09T09:41:50.556Z,61.4
2018-05-09T09:42:40.523Z,61.5
2018-05-09T09:43:30.594Z,61.8
2018-05-09T09:44:20.653Z,61.8
2018-05-09T09:45:10.707Z,61.9
2018-05-09T09:46:00.210Z,62.1
2018-05-09T09:46:50.871Z,62.3
2018-05-09T09:47:40.913Z,62.2
2018-05-09T09:48:30.991Z,62.1
2018-05-09T09:49:21.058Z,62.2
2018-05-09T09:50:11.098Z,62.2
2018-05-09T09:51:01.184Z,62.1
2018-05-09T09:51:50.956Z,62
2018-05-09T09:52:41.004Z,61.9
2018-05-09T09:53:31.385Z,61.7
2018-05-09T09:54:21.135Z,61.6
2018-05-09T09:55:11.507Z,61.6
2018-05-09T09:56:01.309Z,61.6
2018-05-09T09:56:51.621Z,61.6
2018-05-09T09:57:41.695Z,61.6
2018-05-09T09:58:31.494Z,61.8
2018-05-09T09:59:21.842Z,62.1
2018-05-09T10:00:11.317Z,62.3
2018-05-09T10:01:01.956Z,62.4
2018-05-09T10:01:52.007Z,62.4
2018-05-09T10:02:41.784Z,62
2018-05-09T10:03:31.880Z,61.7
2018-05-09T10:04:22.204Z,61.4
2018-05-09T10:05:12.278Z,61.4
2018-05-09T10:06:02.052Z,61.6
2018-05-09T10:06:52.387Z,61.8
2018-05-09T10:07:42.465Z,61.9
2018-05-09T10:08:32.516Z,62
2018-05-09T10:09:22.310Z,62.1
2018-05-09T10:10:12.370Z,62.2
2018-05-09T10:11:02.428Z,62.4
2018-05-09T10:11:52.230Z,62.3
2018-05-09T10:12:42.871Z,62.1
2018-05-09T10:13:32.936Z,62.3
2018-05-09T10:14:22.974Z,62.3
2018-05-09T10:15:12.760Z,62.3
2018-05-09T10:16:03.344Z,62
2018-05-09T10:16:52.875Z,61.4
2018-05-09T10:17:43.244Z,61.3
2018-05-09T10:18:33.282Z,61.2
2018-05-09T10:19:23.344Z,61.1
2018-05-09T10:20:13.413Z,60.7
2018-05-09T10:21:03.216Z,60.4
2018-05-09T10:21:53.579Z,60.5
2018-05-09T10:22:43.628Z,60.4
2018-05-09T10:23:33.387Z,60.5
2018-05-09T10:24:23.738Z,60.8
2018-05-09T10:25:13.816Z,61.1
2018-05-09T10:26:03.883Z,61.3
2018-05-09T10:26:53.927Z,61.6
2018-05-09T10:27:43.719Z,61.9
2018-05-09T10:28:34.071Z,62.1
2018-05-09T10:29:24.134Z,62.2
2018-05-09T10:30:14.206Z,62.3
2018-05-09T10:31:03.980Z,62.3
2018-05-09T10:31:54.428Z,62.4
2018-05-09T10:32:44.120Z,62.6
2018-05-09T10:33:34.189Z,62.8
2018-05-09T10:34:24.518Z,62.9
2018-05-09T10:35:14.290Z,62.9
2018-05-09T10:36:04.653Z,62.8
2018-05-09T10:36:54.150Z,62.7
2018-05-09T10:37:44.502Z,62.5
2018-05-09T10:38:34.842Z,62.3
2018-05-09T10:39:24.905Z,62.2
2018-05-09T10:40:14.960Z,62.2
2018-05-09T10:41:05.036Z,62.1
2018-05-09T10:41:55.088Z,62.1
2018-05-09T10:42:45.159Z,62.3
2018-05-09T10:43:35.221Z,62.3
2018-05-09T10:44:25.295Z,62.2
2018-05-09T10:45:15.435Z,62.3
2018-05-09T10:46:05.422Z,62.4
2018-05-09T10:46:55.479Z,62.4
2018-05-09T10:47:45.553Z,62.4
2018-05-09T10:48:35.620Z,62.3
2018-05-09T10:49:25.677Z,62.4
2018-05-09T10:50:15.759Z,62.6
2018-05-09T10:51:05.533Z,62.9
2018-05-09T10:51:55.576Z,63
2018-05-09T10:52:45.933Z,63.1
2018-05-09T10:53:36.000Z,63.2
2018-05-09T10:54:26.093Z,63.3
2018-05-09T10:55:16.114Z,63.4
2018-05-09T10:56:06.178Z,63.4
2018-05-09T10:56:56.245Z,63.3
2018-05-09T10:57:46.315Z,63.1
2018-05-09T10:58:36.105Z,63
2018-05-09T10:59:26.521Z,62.9
2018-05-09T11:00:16.511Z,62.9
2018-05-09T11:01:06.306Z,63
2018-05-09T11:01:56.641Z,63.2
2018-05-09T11:02:46.423Z,63.3
2018-05-09T11:03:36.785Z,63.5
2018-05-09T11:04:26.852Z,63.5
2018-05-09T11:05:16.896Z,63.4
2018-05-09T11:06:06.980Z,63.4
2018-05-09T11:06:56.766Z,63.3
2018-05-09T11:07:46.559Z,63.2
2018-05-09T11:08:36.594Z,63.3
2018-05-09T11:09:26.978Z,63.5
2018-05-09T11:10:17.298Z,63.4
2018-05-09T11:11:07.359Z,63.2
2018-05-09T11:11:57.424Z,62.9
2018-05-09T11:12:47.477Z,62.8
2018-05-09T11:13:37.537Z,62.8
2018-05-09T11:14:27.603Z,62.8
2018-05-09T11:15:17.663Z,62.8
2018-05-09T11:16:07.727Z,62.8
2018-05-09T11:16:57.801Z,62.9
2018-05-09T11:17:47.857Z,62.3
2018-05-09T11:18:37.932Z,61.1
2018-05-09T11:19:28.013Z,60.3
2018-05-09T11:20:18.060Z,59.9
2018-05-09T11:21:08.119Z,59.8
2018-05-09T11:21:58.202Z,60
2018-05-09T11:22:48.250Z,60.6
2018-05-09T11:23:38.311Z,61.1
2018-05-09T11:24:28.728Z,61.6
2018-05-09T11:25:18.151Z,62.1
2018-05-09T11:26:08.513Z,62.3
2018-05-09T11:26:58.583Z,62.4
2018-05-09T11:27:48.348Z,62.7
2018-05-09T11:28:38.699Z,62.8
2018-05-09T11:29:28.765Z,62.7
2018-05-09T11:30:18.835Z,62.9
2018-05-09T11:31:08.906Z,62.9
2018-05-09T11:31:58.484Z,62.9
2018-05-09T11:32:49.030Z,62.9
2018-05-09T11:33:38.802Z,62.9
2018-05-09T11:34:29.141Z,62.9
2018-05-09T11:35:19.219Z,63
2018-05-09T11:36:09.281Z,63.1
2018-05-09T11:36:59.342Z,63.1
2018-05-09T11:37:49.140Z,63.3
2018-05-09T11:38:39.478Z,63.2
2018-05-09T11:39:29.536Z,63.2
2018-05-09T11:40:19.609Z,63.1
2018-05-09T11:41:09.663Z,63
2018-05-09T11:41:59.752Z,63
2018-05-09T11:42:49.796Z,63
2018-05-09T11:43:39.874Z,62.9
2018-05-09T11:44:29.930Z,62.8
2018-05-09T11:45:20.003Z,62.7
2018-05-09T11:46:10.083Z,62.8
2018-05-09T11:46:59.843Z,62.8
2018-05-09T11:47:50.167Z,62.8
2018-05-09T11:48:40.260Z,62.9
2018-05-09T11:49:30.048Z,62.9
2018-05-09T11:50:20.374Z,62.9
2018-05-09T11:51:10.186Z,62.8
2018-05-09T11:52:00.232Z,62.6
2018-05-09T11:52:50.015Z,62.6
2018-05-09T11:53:40.637Z,62.6
2018-05-09T11:54:30.697Z,62.4
2018-05-09T11:55:20.796Z,62.4
2018-05-09T11:56:10.275Z,62.4
2018-05-09T11:57:00.901Z,62.4
2018-05-09T11:57:50.981Z,62.4
2018-05-09T11:58:41.020Z,62.4
2018-05-09T11:59:31.079Z,62.4
2018-05-09T12:00:21.145Z,62.5
2018-05-09T12:01:11.212Z,62.6
2018-05-09T12:02:01.296Z,62.6
2018-05-09T12:02:51.347Z,62.6
2018-05-09T12:03:41.424Z,62.6
2018-05-09T12:04:31.470Z,62.6
2018-05-09T12:05:21.544Z,62.6
2018-05-09T12:06:11.707Z,62.6
2018-05-09T12:07:01.677Z,62.6
2018-05-09T12:07:51.748Z,62.7
2018-05-09T12:08:41.516Z,62.9
2018-05-09T12:09:31.876Z,63.2
2018-05-09T12:10:22.419Z,63.4
2018-05-09T12:11:11.993Z,63.5
2018-05-09T12:12:02.052Z,63.6
2018-05-09T12:12:51.847Z,63.7
2018-05-09T12:13:42.197Z,63.8
2018-05-09T12:14:32.251Z,63.9
2018-05-09T12:15:22.322Z,64.1
2018-05-09T12:16:12.387Z,64.1
2018-05-09T12:17:02.449Z,63.9
2018-05-09T12:17:52.514Z,63.2
2018-05-09T12:18:42.583Z,62.4
2018-05-09T12:19:32.640Z,61.8
2018-05-09T12:20:22.728Z,61.4
2018-05-09T12:21:12.213Z,61.4
2018-05-09T12:22:02.568Z,61.6
2018-05-09T12:22:52.715Z,61.6
2018-05-09T12:23:42.958Z,61.4
2018-05-09T12:24:33.315Z,61.4
2018-05-09T12:25:22.805Z,61.6
2018-05-09T12:26:13.164Z,61.7
2018-05-09T12:27:03.031Z,61.8
2018-05-09T12:27:53.017Z,61.8
2018-05-09T12:28:43.347Z,62
2018-05-09T12:29:33.421Z,62.2
2018-05-09T12:30:23.485Z,62.3
2018-05-09T12:31:13.533Z,62.2
2018-05-09T12:32:03.602Z,61.9
2018-05-09T12:32:53.672Z,61.8
2018-05-09T12:33:43.723Z,61.9
2018-05-09T12:34:33.796Z,61.9
2018-05-09T12:35:23.568Z,61.8
2018-05-09T12:36:13.717Z,61.8
2018-05-09T12:37:03.999Z,61.8
2018-05-09T12:37:54.057Z,61.8
2018-05-09T12:38:43.849Z,61.8
2018-05-09T12:39:34.204Z,61.6
2018-05-09T12:40:24.275Z,61.6
2018-05-09T12:41:14.054Z,61.6
2018-05-09T12:42:04.406Z,61.6
2018-05-09T12:42:54.152Z,61.6
2018-05-09T12:43:44.513Z,61.4
2018-05-09T12:44:34.304Z,61.3
2018-05-09T12:45:24.366Z,61.3
2018-05-09T12:46:14.418Z,61.2
2018-05-09T12:47:04.763Z,60.8
2018-05-09T12:47:54.833Z,60.4
2018-05-09T12:48:45.390Z,60.4
2018-05-09T12:49:34.980Z,60.5
2018-05-09T12:50:24.811Z,60.6
2018-05-09T12:51:14.812Z,60.7
2018-05-09T12:52:05.173Z,60.8
2018-05-09T12:52:54.925Z,60.8
2018-05-09T12:53:45.279Z,60.7
2018-05-09T12:54:35.542Z,60.7
2018-05-09T12:55:25.399Z,60.6
2018-05-09T12:56:15.471Z,60.6
2018-05-09T12:57:05.540Z,60.4
2018-05-09T12:57:55.613Z,60.3
2018-05-09T12:58:45.703Z,60.1
2018-05-09T12:59:35.731Z,60.1
2018-05-09T13:00:26.003Z,60
2018-05-09T13:01:15.593Z,60.1
2018-05-09T13:02:05.646Z,60.1
2018-05-09T13:02:56.019Z,60.1
2018-05-09T13:03:45.504Z,60.2
2018-05-09T13:04:36.132Z,60.1
2018-05-09T13:05:26.183Z,59.9
2018-05-09T13:06:16.273Z,59.9
2018-05-09T13:07:05.853Z,60.1
2018-05-09T13:07:55.904Z,60.2
2018-05-09T13:08:46.179Z,60.3
2018-05-09T13:09:36.519Z,60.3
2018-05-09T13:10:26.578Z,60.3
2018-05-09T13:11:16.663Z,60.3
2018-05-09T13:12:06.414Z,60.3
2018-05-09T13:12:56.767Z,60.3
2018-05-09T13:13:46.834Z,60.3
2018-05-09T13:14:36.889Z,59.9
2018-05-09T13:15:26.681Z,59.9
2018-05-09T13:16:17.050Z,60
2018-05-09T13:17:06.813Z,59.9
2018-05-09T13:17:57.185Z,59.8
2018-05-09T13:18:47.253Z,59.6
2018-05-09T13:19:37.105Z,59.1
2018-05-09T13:20:27.063Z,58.5
2018-05-09T13:21:17.142Z,57.9